sensor_id;sensor_type;location;lat;lon;timestamp;P1;durP1;ratioP1;P2;durP2;ratioP2
53497;SDS011;39382;47.168;16.008;2023-03-15T00:01:39;0.10;;;0.10;;
53497;SDS011;39382;47.168;16.008;2023-03-15T00:04:05;2.17;;;0.10;;
53497;SDS011;39382;47.168;16.008;2023-03-15T00:06:31;0.10;;;0.10;;
53497;SDS011;39382;47.168;16.008;2023-03-15T00:08:58;2.97;;;0.32;;
53497;SDS011;39382;47.168;16.008;2023-03-15T00:11:26;0.77;;;0.17;;
53497;SDS011;39382;47.168;16.008;2023-03-15T00:13:52;0.32;;;0.20;;
53497;SDS011;39382;47.168;16.008;2023-03-15T00:16:18;0.20;;;0.20;;
53497;SDS011;39382;47.168;16.008;2023-03-15T00:18:47;1.38;;;0.30;;
53497;SDS011;39382;47.168;16.008;2023-03-15T00:21:12;0.98;;;0.30;;
53497;SDS011;39382;47.168;16.008;2023-03-15T00:23:38;0.35;;;0.20;;
53497;SDS011;39382;47.168;16.008;2023-03-15T00:26:04;1.38;;;0.10;;
53497;SDS011;39382;47.168;16.008;2023-03-15T00:28:30;0.55;;;0.30;;
53497;SDS011;39382;47.168;16.008;2023-03-15T00:31:29;0.40;;;0.30;;
53497;SDS011;39382;47.168;16.008;2023-03-15T00:33:49;0.85;;;0.20;;
53497;SDS011;39382;47.168;16.008;2023-03-15T00:36:17;0.15;;;0.15;;
53497;SDS011;39382;47.168;16.008;2023-03-15T00:38:43;4.47;;;0.20;;
53497;SDS011;39382;47.168;16.008;2023-03-15T00:41:10;0.17;;;0.17;;
53497;SDS011;39382;47.168;16.008;2023-03-15T00:43:38;0.10;;;0.10;;
53497;SDS011;39382;47.168;16.008;2023-03-15T00:46:04;0.88;;;0.22;;
53497;SDS011;39382;47.168;16.008;2023-03-15T00:48:31;0.77;;;0.50;;
53497;SDS011;39382;47.168;16.008;2023-03-15T00:51:08;0.35;;;0.20;;
53497;SDS011;39382;47.168;16.008;2023-03-15T00:53:40;0.22;;;0.13;;
53497;SDS011;39382;47.168;16.008;2023-03-15T00:56:07;0.77;;;0.30;;
53497;SDS011;39382;47.168;16.008;2023-03-15T00:58:35;0.10;;;0.10;;
53497;SDS011;39382;47.168;16.008;2023-03-15T01:01:08;1.33;;;0.15;;
53497;SDS011;39382;47.168;16.008;2023-03-15T01:03:42;0.77;;;0.20;;
53497;SDS011;39382;47.168;16.008;2023-03-15T01:06:12;0.10;;;0.10;;
53497;SDS011;39382;47.168;16.008;2023-03-15T01:08:39;0.30;;;0.10;;
53497;SDS011;39382;47.168;16.008;2023-03-15T01:11:06;0.50;;;0.30;;
53497;SDS011;39382;47.168;16.008;2023-03-15T01:13:34;0.52;;;0.10;;
53497;SDS011;39382;47.168;16.008;2023-03-15T01:16:00;0.10;;;0.10;;
53497;SDS011;39382;47.168;16.008;2023-03-15T01:18:26;0.10;;;0.10;;
53497;SDS011;39382;47.168;16.008;2023-03-15T01:20:52;0.70;;;0.30;;
53497;SDS011;39382;47.168;16.008;2023-03-15T01:23:18;1.08;;;0.22;;
53497;SDS011;39382;47.168;16.008;2023-03-15T01:25:44;3.42;;;2.88;;
53497;SDS011;39382;47.168;16.008;2023-03-15T01:28:09;0.57;;;0.10;;
53497;SDS011;39382;47.168;16.008;2023-03-15T01:30:35;0.30;;;0.28;;
53497;SDS011;39382;47.168;16.008;2023-03-15T01:33:01;0.20;;;0.10;;
53497;SDS011;39382;47.168;16.008;2023-03-15T01:35:26;0.10;;;0.10;;
53497;SDS011;39382;47.168;16.008;2023-03-15T01:37:52;1.60;;;0.70;;
53497;SDS011;39382;47.168;16.008;2023-03-15T01:40:18;0.38;;;0.10;;
53497;SDS011;39382;47.168;16.008;2023-03-15T01:43:10;0.47;;;0.10;;
53497;SDS011;39382;47.168;16.008;2023-03-15T01:48:49;0.57;;;0.20;;
53497;SDS011;39382;47.168;16.008;2023-03-15T01:51:30;0.52;;;0.20;;
53497;SDS011;39382;47.168;16.008;2023-03-15T01:54:05;1.13;;;0.60;;
53497;SDS011;39382;47.168;16.008;2023-03-15T01:56:37;0.30;;;0.30;;
53497;SDS011;39382;47.168;16.008;2023-03-15T01:59:05;0.30;;;0.30;;
53497;SDS011;39382;47.168;16.008;2023-03-15T02:01:35;1.65;;;0.30;;
53497;SDS011;39382;47.168;16.008;2023-03-15T02:04:04;1.10;;;0.20;;
53497;SDS011;39382;47.168;16.008;2023-03-15T02:06:33;0.13;;;0.00;;
53497;SDS011;39382;47.168;16.008;2023-03-15T02:09:02;1.55;;;0.22;;
53497;SDS011;39382;47.168;16.008;2023-03-15T02:11:33;0.77;;;0.20;;
53497;SDS011;39382;47.168;16.008;2023-03-15T02:13:59;0.80;;;0.30;;
53497;SDS011;39382;47.168;16.008;2023-03-15T02:16:27;0.17;;;0.15;;
53497;SDS011;39382;47.168;16.008;2023-03-15T02:18:55;1.55;;;0.20;;
53497;SDS011;39382;47.168;16.008;2023-03-15T02:26:56;1.88;;;0.25;;
53497;SDS011;39382;47.168;16.008;2023-03-15T02:29:22;1.75;;;0.20;;
53497;SDS011;39382;47.168;16.008;2023-03-15T02:31:51;1.63;;;0.20;;
53497;SDS011;39382;47.168;16.008;2023-03-15T02:34:17;0.10;;;0.10;;
53497;SDS011;39382;47.168;16.008;2023-03-15T02:36:43;1.95;;;0.15;;
53497;SDS011;39382;47.168;16.008;2023-03-15T02:39:13;0.40;;;0.40;;
53497;SDS011;39382;47.168;16.008;2023-03-15T02:41:41;1.00;;;0.35;;
53497;SDS011;39382;47.168;16.008;2023-03-15T02:44:15;0.25;;;0.25;;
53497;SDS011;39382;47.168;16.008;2023-03-15T02:46:46;0.95;;;0.40;;
53497;SDS011;39382;47.168;16.008;2023-03-15T02:49:16;1.00;;;0.10;;
53497;SDS011;39382;47.168;16.008;2023-03-15T02:51:44;1.35;;;0.20;;
53497;SDS011;39382;47.168;16.008;2023-03-15T02:54:09;1.00;;;0.22;;
53497;SDS011;39382;47.168;16.008;2023-03-15T02:56:35;0.45;;;0.20;;
53497;SDS011;39382;47.168;16.008;2023-03-15T02:59:01;1.90;;;0.30;;
53497;SDS011;39382;47.168;16.008;2023-03-15T03:01:26;1.85;;;0.20;;
53497;SDS011;39382;47.168;16.008;2023-03-15T03:03:52;0.45;;;0.40;;
53497;SDS011;39382;47.168;16.008;2023-03-15T03:06:18;1.20;;;0.25;;
53497;SDS011;39382;47.168;16.008;2023-03-15T03:08:43;0.10;;;0.10;;
53497;SDS011;39382;47.168;16.008;2023-03-15T03:11:11;1.33;;;0.15;;
53497;SDS011;39382;47.168;16.008;2023-03-15T03:13:39;0.13;;;0.10;;
53497;SDS011;39382;47.168;16.008;2023-03-15T03:16:05;0.20;;;0.20;;
53497;SDS011;39382;47.168;16.008;2023-03-15T03:18:32;0.60;;;0.30;;
53497;SDS011;39382;47.168;16.008;2023-03-15T03:21:01;3.08;;;0.40;;
53497;SDS011;39382;47.168;16.008;2023-03-15T03:23:28;1.30;;;0.38;;
53497;SDS011;39382;47.168;16.008;2023-03-15T03:25:55;1.30;;;0.30;;
53497;SDS011;39382;47.168;16.008;2023-03-15T03:28:22;0.30;;;0.20;;
53497;SDS011;39382;47.168;16.008;2023-03-15T03:30:50;0.57;;;0.40;;
53497;SDS011;39382;47.168;16.008;2023-03-15T03:33:16;0.20;;;0.20;;
53497;SDS011;39382;47.168;16.008;2023-03-15T03:35:42;1.42;;;0.45;;
53497;SDS011;39382;47.168;16.008;2023-03-15T03:38:09;2.25;;;0.22;;
53497;SDS011;39382;47.168;16.008;2023-03-15T03:40:35;0.17;;;0.17;;
53497;SDS011;39382;47.168;16.008;2023-03-15T03:43:06;0.73;;;0.30;;
53497;SDS011;39382;47.168;16.008;2023-03-15T03:45:32;3.38;;;0.45;;
53497;SDS011;39382;47.168;16.008;2023-03-15T03:47:58;1.33;;;0.38;;
53497;SDS011;39382;47.168;16.008;2023-03-15T03:50:23;0.77;;;0.30;;
53497;SDS011;39382;47.168;16.008;2023-03-15T03:52:49;1.20;;;0.20;;
53497;SDS011;39382;47.168;16.008;2023-03-15T03:55:15;1.33;;;0.40;;
53497;SDS011;39382;47.168;16.008;2023-03-15T03:57:41;0.43;;;0.10;;
53497;SDS011;39382;47.168;16.008;2023-03-15T04:00:08;0.40;;;0.30;;
53497;SDS011;39382;47.168;16.008;2023-03-15T04:02:38;0.57;;;0.17;;
53497;SDS011;39382;47.168;16.008;2023-03-15T04:05:06;4.03;;;1.00;;
53497;SDS011;39382;47.168;16.008;2023-03-15T04:07:36;0.20;;;0.20;;
53497;SDS011;39382;47.168;16.008;2023-03-15T04:10:02;2.42;;;0.45;;
53497;SDS011;39382;47.168;16.008;2023-03-15T04:12:28;1.50;;;0.30;;
53497;SDS011;39382;47.168;16.008;2023-03-15T04:14:54;0.47;;;0.47;;
53497;SDS011;39382;47.168;16.008;2023-03-15T04:17:20;0.30;;;0.20;;
53497;SDS011;39382;47.168;16.008;2023-03-15T04:19:45;0.98;;;0.20;;
53497;SDS011;39382;47.168;16.008;2023-03-15T04:22:11;0.63;;;0.20;;
53497;SDS011;39382;47.168;16.008;2023-03-15T04:24:39;0.55;;;0.35;;
53497;SDS011;39382;47.168;16.008;2023-03-15T04:27:06;0.10;;;0.10;;
53497;SDS011;39382;47.168;16.008;2023-03-15T04:29:32;0.85;;;0.40;;
53497;SDS011;39382;47.168;16.008;2023-03-15T04:31:58;1.30;;;0.20;;
53497;SDS011;39382;47.168;16.008;2023-03-15T04:34:29;0.55;;;0.43;;
53497;SDS011;39382;47.168;16.008;2023-03-15T04:36:55;0.43;;;0.40;;
53497;SDS011;39382;47.168;16.008;2023-03-15T04:39:21;0.52;;;0.40;;
53497;SDS011;39382;47.168;16.008;2023-03-15T04:41:47;1.05;;;0.65;;
53497;SDS011;39382;47.168;16.008;2023-03-15T04:44:13;1.85;;;0.50;;
53497;SDS011;39382;47.168;16.008;2023-03-15T04:46:40;2.97;;;1.25;;
53497;SDS011;39382;47.168;16.008;2023-03-15T04:49:09;5.05;;;3.63;;
53497;SDS011;39382;47.168;16.008;2023-03-15T04:51:35;4.70;;;3.25;;
53497;SDS011;39382;47.168;16.008;2023-03-15T04:54:00;3.22;;;1.77;;
53497;SDS011;39382;47.168;16.008;2023-03-15T04:56:27;1.48;;;0.77;;
53497;SDS011;39382;47.168;16.008;2023-03-15T04:58:53;0.65;;;0.45;;
53497;SDS011;39382;47.168;16.008;2023-03-15T05:01:19;0.52;;;0.52;;
53497;SDS011;39382;47.168;16.008;2023-03-15T05:03:48;0.95;;;0.40;;
53497;SDS011;39382;47.168;16.008;2023-03-15T05:06:14;2.83;;;0.70;;
53497;SDS011;39382;47.168;16.008;2023-03-15T05:08:39;3.17;;;1.30;;
53497;SDS011;39382;47.168;16.008;2023-03-15T05:11:05;0.60;;;0.40;;
53497;SDS011;39382;47.168;16.008;2023-03-15T05:13:31;0.40;;;0.35;;
53497;SDS011;39382;47.168;16.008;2023-03-15T05:15:56;0.50;;;0.30;;
53497;SDS011;39382;47.168;16.008;2023-03-15T05:18:22;0.40;;;0.40;;
53497;SDS011;39382;47.168;16.008;2023-03-15T05:20:49;0.90;;;0.32;;
53497;SDS011;39382;47.168;16.008;2023-03-15T05:23:15;1.80;;;0.45;;
53497;SDS011;39382;47.168;16.008;2023-03-15T05:25:40;4.05;;;0.60;;
53497;SDS011;39382;47.168;16.008;2023-03-15T05:28:07;0.60;;;0.60;;
53497;SDS011;39382;47.168;16.008;2023-03-15T05:30:33;1.48;;;0.50;;
53497;SDS011;39382;47.168;16.008;2023-03-15T05:32:58;1.75;;;1.00;;
53497;SDS011;39382;47.168;16.008;2023-03-15T05:35:28;2.00;;;1.80;;
53497;SDS011;39382;47.168;16.008;2023-03-15T05:37:54;3.28;;;1.73;;
53497;SDS011;39382;47.168;16.008;2023-03-15T05:40:20;2.42;;;1.30;;
53497;SDS011;39382;47.168;16.008;2023-03-15T05:42:45;1.50;;;0.57;;
53497;SDS011;39382;47.168;16.008;2023-03-15T05:45:11;0.60;;;0.60;;
53497;SDS011;39382;47.168;16.008;2023-03-15T05:47:37;1.45;;;0.68;;
53497;SDS011;39382;47.168;16.008;2023-03-15T05:50:03;0.70;;;0.60;;
53497;SDS011;39382;47.168;16.008;2023-03-15T05:52:29;1.23;;;0.55;;
53497;SDS011;39382;47.168;16.008;2023-03-15T05:54:55;3.13;;;0.75;;
53497;SDS011;39382;47.168;16.008;2023-03-15T05:57:21;3.70;;;0.80;;
53497;SDS011;39382;47.168;16.008;2023-03-15T05:59:47;10.82;;;0.80;;
53497;SDS011;39382;47.168;16.008;2023-03-15T06:02:12;2.25;;;0.90;;
53497;SDS011;39382;47.168;16.008;2023-03-15T06:04:38;4.05;;;1.35;;
53497;SDS011;39382;47.168;16.008;2023-03-15T06:07:04;1.67;;;1.20;;
53497;SDS011;39382;47.168;16.008;2023-03-15T06:09:30;1.45;;;0.82;;
53497;SDS011;39382;47.168;16.008;2023-03-15T06:11:55;5.25;;;4.75;;
53497;SDS011;39382;47.168;16.008;2023-03-15T06:14:23;3.28;;;3.00;;
53497;SDS011;39382;47.168;16.008;2023-03-15T06:16:49;2.10;;;1.05;;
53497;SDS011;39382;47.168;16.008;2023-03-15T06:19:15;0.93;;;0.93;;
53497;SDS011;39382;47.168;16.008;2023-03-15T06:21:40;2.40;;;1.13;;
53497;SDS011;39382;47.168;16.008;2023-03-15T06:24:06;0.70;;;0.70;;
53497;SDS011;39382;47.168;16.008;2023-03-15T06:26:32;2.47;;;0.57;;
53497;SDS011;39382;47.168;16.008;2023-03-15T06:28:57;1.30;;;1.15;;
53497;SDS011;39382;47.168;16.008;2023-03-15T06:31:23;0.70;;;0.70;;
53497;SDS011;39382;47.168;16.008;2023-03-15T06:33:49;2.40;;;1.17;;
53497;SDS011;39382;47.168;16.008;2023-03-15T06:36:14;0.80;;;0.80;;
53497;SDS011;39382;47.168;16.008;2023-03-15T06:38:40;1.30;;;1.20;;
53497;SDS011;39382;47.168;16.008;2023-03-15T06:41:06;4.13;;;2.55;;
53497;SDS011;39382;47.168;16.008;2023-03-15T06:43:32;1.75;;;1.13;;
53497;SDS011;39382;47.168;16.008;2023-03-15T06:45:58;1.95;;;1.15;;
53497;SDS011;39382;47.168;16.008;2023-03-15T06:48:27;1.85;;;1.17;;
53497;SDS011;39382;47.168;16.008;2023-03-15T06:50:53;2.08;;;0.52;;
53497;SDS011;39382;47.168;16.008;2023-03-15T06:53:18;6.97;;;3.45;;
53497;SDS011;39382;47.168;16.008;2023-03-15T06:55:44;9.68;;;5.35;;
53497;SDS011;39382;47.168;16.008;2023-03-15T06:58:11;2.50;;;1.60;;
53497;SDS011;39382;47.168;16.008;2023-03-15T07:00:37;4.05;;;2.17;;
53497;SDS011;39382;47.168;16.008;2023-03-15T07:03:03;2.90;;;2.28;;
53497;SDS011;39382;47.168;16.008;2023-03-15T07:05:29;2.15;;;1.35;;
53497;SDS011;39382;47.168;16.008;2023-03-15T07:07:55;3.33;;;2.58;;
53497;SDS011;39382;47.168;16.008;2023-03-15T07:10:21;4.40;;;1.90;;
53497;SDS011;39382;47.168;16.008;2023-03-15T07:12:47;1.42;;;1.33;;
53497;SDS011;39382;47.168;16.008;2023-03-15T07:15:13;1.65;;;1.30;;
53497;SDS011;39382;47.168;16.008;2023-03-15T07:17:39;3.17;;;2.13;;
53497;SDS011;39382;47.168;16.008;2023-03-15T07:20:05;1.65;;;1.50;;
53497;SDS011;39382;47.168;16.008;2023-03-15T07:22:31;1.45;;;1.00;;
53497;SDS011;39382;47.168;16.008;2023-03-15T07:24:57;1.10;;;1.00;;
53497;SDS011;39382;47.168;16.008;2023-03-15T07:27:23;2.20;;;1.23;;
53497;SDS011;39382;47.168;16.008;2023-03-15T07:29:49;2.78;;;1.23;;
53497;SDS011;39382;47.168;16.008;2023-03-15T07:32:14;2.05;;;1.25;;
53497;SDS011;39382;47.168;16.008;2023-03-15T07:34:40;0.95;;;0.93;;
53497;SDS011;39382;47.168;16.008;2023-03-15T07:37:06;1.20;;;1.10;;
53497;SDS011;39382;47.168;16.008;2023-03-15T07:39:31;1.10;;;1.10;;
53497;SDS011;39382;47.168;16.008;2023-03-15T07:41:57;1.48;;;1.05;;
53497;SDS011;39382;47.168;16.008;2023-03-15T07:44:24;8.15;;;1.73;;
53497;SDS011;39382;47.168;16.008;2023-03-15T07:46:50;2.95;;;1.35;;
53497;SDS011;39382;47.168;16.008;2023-03-15T07:49:16;1.05;;;1.02;;
53497;SDS011;39382;47.168;16.008;2023-03-15T07:51:42;4.00;;;2.13;;
53497;SDS011;39382;47.168;16.008;2023-03-15T07:54:07;3.60;;;1.00;;
53497;SDS011;39382;47.168;16.008;2023-03-15T07:56:34;2.05;;;1.27;;
53497;SDS011;39382;47.168;16.008;2023-03-15T07:58:59;7.18;;;1.55;;
53497;SDS011;39382;47.168;16.008;2023-03-15T08:01:25;3.05;;;1.10;;
53497;SDS011;39382;47.168;16.008;2023-03-15T08:03:50;1.92;;;1.02;;
53497;SDS011;39382;47.168;16.008;2023-03-15T08:06:16;1.23;;;1.13;;
53497;SDS011;39382;47.168;16.008;2023-03-15T08:08:42;0.82;;;0.82;;
53497;SDS011;39382;47.168;16.008;2023-03-15T08:11:07;2.30;;;0.85;;
53497;SDS011;39382;47.168;16.008;2023-03-15T08:13:33;1.25;;;1.00;;
53497;SDS011;39382;47.168;16.008;2023-03-15T08:15:59;0.57;;;0.57;;
53497;SDS011;39382;47.168;16.008;2023-03-15T08:18:25;0.90;;;0.75;;
53497;SDS011;39382;47.168;16.008;2023-03-15T08:20:54;0.80;;;0.80;;
53497;SDS011;39382;47.168;16.008;2023-03-15T08:23:20;0.98;;;0.85;;
53497;SDS011;39382;47.168;16.008;2023-03-15T08:25:46;1.45;;;0.73;;
53497;SDS011;39382;47.168;16.008;2023-03-15T08:28:13;0.80;;;0.80;;
53497;SDS011;39382;47.168;16.008;2023-03-15T08:30:39;0.90;;;0.90;;
53497;SDS011;39382;47.168;16.008;2023-03-15T08:33:05;1.88;;;0.98;;
53497;SDS011;39382;47.168;16.008;2023-03-15T08:35:33;1.75;;;0.82;;
53497;SDS011;39382;47.168;16.008;2023-03-15T08:37:59;1.73;;;1.00;;
53497;SDS011;39382;47.168;16.008;2023-03-15T08:40:26;0.70;;;0.57;;
53497;SDS011;39382;47.168;16.008;2023-03-15T08:42:54;1.23;;;0.70;;
53497;SDS011;39382;47.168;16.008;2023-03-15T08:45:21;2.25;;;0.90;;
53497;SDS011;39382;47.168;16.008;2023-03-15T08:47:53;1.50;;;0.60;;
53497;SDS011;39382;47.168;16.008;2023-03-15T08:50:20;1.73;;;0.85;;
53497;SDS011;39382;47.168;16.008;2023-03-15T08:52:45;2.55;;;0.70;;
53497;SDS011;39382;47.168;16.008;2023-03-15T08:55:11;2.40;;;0.93;;
53497;SDS011;39382;47.168;16.008;2023-03-15T08:57:40;3.28;;;1.45;;
53497;SDS011;39382;47.168;16.008;2023-03-15T09:00:07;0.95;;;0.70;;
53497;SDS011;39382;47.168;16.008;2023-03-15T09:02:33;3.00;;;0.55;;
53497;SDS011;39382;47.168;16.008;2023-03-15T09:05:00;1.80;;;0.60;;
53497;SDS011;39382;47.168;16.008;2023-03-15T09:07:25;1.23;;;1.10;;
53497;SDS011;39382;47.168;16.008;2023-03-15T09:09:51;6.03;;;0.68;;
53497;SDS011;39382;47.168;16.008;2023-03-15T09:12:19;4.25;;;0.90;;
53497;SDS011;39382;47.168;16.008;2023-03-15T09:14:45;4.40;;;0.95;;
53497;SDS011;39382;47.168;16.008;2023-03-15T09:17:11;1.30;;;0.50;;
53497;SDS011;39382;47.168;16.008;2023-03-15T09:19:37;0.30;;;0.30;;
53497;SDS011;39382;47.168;16.008;2023-03-15T09:22:03;2.28;;;0.75;;
53497;SDS011;39382;47.168;16.008;2023-03-15T09:24:29;0.32;;;0.32;;
53497;SDS011;39382;47.168;16.008;2023-03-15T09:26:55;1.05;;;0.55;;
53497;SDS011;39382;47.168;16.008;2023-03-15T09:29:21;0.68;;;0.50;;
53497;SDS011;39382;47.168;16.008;2023-03-15T09:31:46;2.90;;;0.82;;
53497;SDS011;39382;47.168;16.008;2023-03-15T09:34:12;0.38;;;0.35;;
53497;SDS011;39382;47.168;16.008;2023-03-15T09:36:38;0.50;;;0.40;;
53497;SDS011;39382;47.168;16.008;2023-03-15T09:39:03;2.03;;;0.50;;
53497;SDS011;39382;47.168;16.008;2023-03-15T09:44:19;1.67;;;0.47;;
53497;SDS011;39382;47.168;16.008;2023-03-15T09:47:19;3.33;;;1.27;;
53497;SDS011;39382;47.168;16.008;2023-03-15T09:52:54;0.68;;;0.38;;
53497;SDS011;39382;47.168;16.008;2023-03-15T09:55:26;2.10;;;0.82;;
53497;SDS011;39382;47.168;16.008;2023-03-15T09:58:00;0.93;;;0.50;;
53497;SDS011;39382;47.168;16.008;2023-03-15T10:06:01;1.08;;;0.65;;
53497;SDS011;39382;47.168;16.008;2023-03-15T10:08:31;0.65;;;0.43;;
53497;SDS011;39382;47.168;16.008;2023-03-15T10:27:26;1.48;;;0.80;;
53497;SDS011;39382;47.168;16.008;2023-03-15T10:30:17;1.70;;;0.38;;
53497;SDS011;39382;47.168;16.008;2023-03-15T10:32:47;0.77;;;0.60;;
53497;SDS011;39382;47.168;16.008;2023-03-15T10:35:23;0.30;;;0.30;;
53497;SDS011;39382;47.168;16.008;2023-03-15T10:37:49;0.77;;;0.65;;
53497;SDS011;39382;47.168;16.008;2023-03-15T10:40:15;1.85;;;0.65;;
53497;SDS011;39382;47.168;16.008;2023-03-15T10:43:18;0.70;;;0.40;;
53497;SDS011;39382;47.168;16.008;2023-03-15T10:45:48;1.65;;;0.30;;
53497;SDS011;39382;47.168;16.008;2023-03-15T10:48:24;1.02;;;0.60;;
53497;SDS011;39382;47.168;16.008;2023-03-15T10:50:51;1.27;;;0.43;;
53497;SDS011;39382;47.168;16.008;2023-03-15T10:53:17;0.17;;;0.17;;
53497;SDS011;39382;47.168;16.008;2023-03-15T10:55:53;0.25;;;0.20;;
53497;SDS011;39382;47.168;16.008;2023-03-15T10:58:45;2.58;;;0.50;;
53497;SDS011;39382;47.168;16.008;2023-03-15T11:01:12;0.52;;;0.52;;
53497;SDS011;39382;47.168;16.008;2023-03-15T11:04:09;1.05;;;0.40;;
53497;SDS011;39382;47.168;16.008;2023-03-15T11:06:40;6.70;;;0.57;;
53497;SDS011;39382;47.168;16.008;2023-03-15T11:09:11;0.30;;;0.30;;
53497;SDS011;39382;47.168;16.008;2023-03-15T11:11:54;2.65;;;0.35;;
53497;SDS011;39382;47.168;16.008;2023-03-15T11:14:23;0.40;;;0.30;;
53497;SDS011;39382;47.168;16.008;2023-03-15T11:16:55;0.73;;;0.28;;
53497;SDS011;39382;47.168;16.008;2023-03-15T11:19:25;0.17;;;0.10;;
53497;SDS011;39382;47.168;16.008;2023-03-15T11:21:52;2.10;;;0.20;;
53497;SDS011;39382;47.168;16.008;2023-03-15T11:24:22;0.35;;;0.20;;
53497;SDS011;39382;47.168;16.008;2023-03-15T11:26:50;0.40;;;0.20;;
53497;SDS011;39382;47.168;16.008;2023-03-15T11:31:55;0.22;;;0.13;;
53497;SDS011;39382;47.168;16.008;2023-03-15T11:37:21;0.10;;;0.10;;
53497;SDS011;39382;47.168;16.008;2023-03-15T11:42:27;0.52;;;0.10;;
53497;SDS011;39382;47.168;16.008;2023-03-15T11:45:00;0.85;;;0.30;;
53497;SDS011;39382;47.168;16.008;2023-03-15T11:47:39;0.15;;;0.10;;
53497;SDS011;39382;47.168;16.008;2023-03-15T11:50:18;0.10;;;0.10;;
53497;SDS011;39382;47.168;16.008;2023-03-15T11:52:46;0.10;;;0.10;;
53497;SDS011;39382;47.168;16.008;2023-03-15T11:55:18;0.22;;;0.20;;
53497;SDS011;39382;47.168;16.008;2023-03-15T11:57:48;0.57;;;0.10;;
53497;SDS011;39382;47.168;16.008;2023-03-15T12:02:59;0.13;;;0.13;;
53497;SDS011;39382;47.168;16.008;2023-03-15T12:06:05;0.10;;;0.10;;
53497;SDS011;39382;47.168;16.008;2023-03-15T12:08:47;0.10;;;0.10;;
53497;SDS011;39382;47.168;16.008;2023-03-15T12:13:52;0.70;;;0.30;;
53497;SDS011;39382;47.168;16.008;2023-03-15T12:16:40;0.40;;;0.28;;
53497;SDS011;39382;47.168;16.008;2023-03-15T12:19:12;1.48;;;0.20;;
53497;SDS011;39382;47.168;16.008;2023-03-15T12:21:44;0.10;;;0.10;;
53497;SDS011;39382;47.168;16.008;2023-03-15T12:24:30;0.20;;;0.20;;
53497;SDS011;39382;47.168;16.008;2023-03-15T12:27:02;0.10;;;0.10;;
53497;SDS011;39382;47.168;16.008;2023-03-15T12:29:31;0.13;;;0.13;;
53497;SDS011;39382;47.168;16.008;2023-03-15T12:40:28;0.20;;;0.10;;
53497;SDS011;39382;47.168;16.008;2023-03-15T12:43:01;1.65;;;0.10;;
53497;SDS011;39382;47.168;16.008;2023-03-15T12:45:37;0.65;;;0.10;;
53497;SDS011;39382;47.168;16.008;2023-03-15T12:53:16;0.10;;;0.10;;
53497;SDS011;39382;47.168;16.008;2023-03-15T12:55:44;1.00;;;0.25;;
53497;SDS011;39382;47.168;16.008;2023-03-15T12:58:10;0.10;;;0.10;;
53497;SDS011;39382;47.168;16.008;2023-03-15T13:00:37;2.78;;;0.30;;
53497;SDS011;39382;47.168;16.008;2023-03-15T13:03:18;0.63;;;0.63;;
53497;SDS011;39382;47.168;16.008;2023-03-15T13:08:46;1.70;;;0.45;;
53497;SDS011;39382;47.168;16.008;2023-03-15T13:11:36;1.65;;;0.35;;
53497;SDS011;39382;47.168;16.008;2023-03-15T13:19:49;4.05;;;0.98;;
53497;SDS011;39382;47.168;16.008;2023-03-15T13:25:36;0.30;;;0.25;;
53497;SDS011;39382;47.168;16.008;2023-03-15T13:28:15;6.22;;;0.30;;
53497;SDS011;39382;47.168;16.008;2023-03-15T13:30:49;0.43;;;0.30;;
53497;SDS011;39382;47.168;16.008;2023-03-15T13:33:27;0.70;;;0.30;;
53497;SDS011;39382;47.168;16.008;2023-03-15T13:36:09;0.60;;;0.35;;
53497;SDS011;39382;47.168;16.008;2023-03-15T13:38:40;1.90;;;0.30;;
53497;SDS011;39382;47.168;16.008;2023-03-15T13:43:45;4.90;;;0.32;;
53497;SDS011;39382;47.168;16.008;2023-03-15T13:46:12;2.10;;;0.60;;
53497;SDS011;39382;47.168;16.008;2023-03-15T13:48:40;2.65;;;0.52;;
53497;SDS011;39382;47.168;16.008;2023-03-15T13:51:21;0.60;;;0.43;;
53497;SDS011;39382;47.168;16.008;2023-03-15T13:53:53;0.80;;;0.52;;
53497;SDS011;39382;47.168;16.008;2023-03-15T13:56:52;0.40;;;0.32;;
53497;SDS011;39382;47.168;16.008;2023-03-15T13:59:51;0.55;;;0.40;;
53497;SDS011;39382;47.168;16.008;2023-03-15T14:02:24;0.75;;;0.52;;
53497;SDS011;39382;47.168;16.008;2023-03-15T14:05:03;0.25;;;0.20;;
53497;SDS011;39382;47.168;16.008;2023-03-15T14:07:37;0.47;;;0.28;;
53497;SDS011;39382;47.168;16.008;2023-03-15T14:10:28;1.13;;;0.45;;
53497;SDS011;39382;47.168;16.008;2023-03-15T14:13:22;0.30;;;0.30;;
53497;SDS011;39382;47.168;16.008;2023-03-15T14:15:48;1.20;;;0.30;;
53497;SDS011;39382;47.168;16.008;2023-03-15T14:18:22;0.65;;;0.45;;
53497;SDS011;39382;47.168;16.008;2023-03-15T14:23:22;4.57;;;1.98;;
53497;SDS011;39382;47.168;16.008;2023-03-15T14:25:50;1.27;;;0.70;;
53497;SDS011;39382;47.168;16.008;2023-03-15T14:28:18;0.80;;;0.50;;
53497;SDS011;39382;47.168;16.008;2023-03-15T14:30:50;2.00;;;0.35;;
53497;SDS011;39382;47.168;16.008;2023-03-15T14:35:57;5.05;;;0.50;;
53497;SDS011;39382;47.168;16.008;2023-03-15T14:38:25;0.75;;;0.28;;
53497;SDS011;39382;47.168;16.008;2023-03-15T14:41:08;1.80;;;0.50;;
53497;SDS011;39382;47.168;16.008;2023-03-15T14:43:40;0.57;;;0.50;;
53497;SDS011;39382;47.168;16.008;2023-03-15T14:46:07;0.52;;;0.32;;
53497;SDS011;39382;47.168;16.008;2023-03-15T14:48:33;0.85;;;0.43;;
53497;SDS011;39382;47.168;16.008;2023-03-15T14:50:59;0.40;;;0.40;;
53497;SDS011;39382;47.168;16.008;2023-03-15T14:53:25;1.15;;;0.50;;
53497;SDS011;39382;47.168;16.008;2023-03-15T14:55:56;2.55;;;0.40;;
53497;SDS011;39382;47.168;16.008;2023-03-15T14:58:21;0.80;;;0.35;;
53497;SDS011;39382;47.168;16.008;2023-03-15T15:00:48;1.40;;;0.40;;
53497;SDS011;39382;47.168;16.008;2023-03-15T15:03:33;3.08;;;0.43;;
53497;SDS011;39382;47.168;16.008;2023-03-15T15:06:02;0.35;;;0.20;;
53497;SDS011;39382;47.168;16.008;2023-03-15T15:08:33;1.55;;;0.85;;
53497;SDS011;39382;47.168;16.008;2023-03-15T15:11:03;2.55;;;0.47;;
53497;SDS011;39382;47.168;16.008;2023-03-15T15:13:32;2.75;;;0.50;;
53497;SDS011;39382;47.168;16.008;2023-03-15T15:15:59;1.02;;;0.40;;
53497;SDS011;39382;47.168;16.008;2023-03-15T15:18:25;1.02;;;0.30;;
53497;SDS011;39382;47.168;16.008;2023-03-15T15:20:53;4.57;;;0.38;;
53497;SDS011;39382;47.168;16.008;2023-03-15T15:23:25;1.00;;;0.25;;
53497;SDS011;39382;47.168;16.008;2023-03-15T15:25:54;2.17;;;0.50;;
53497;SDS011;39382;47.168;16.008;2023-03-15T15:28:22;1.38;;;0.20;;
53497;SDS011;39382;47.168;16.008;2023-03-15T15:30:48;3.97;;;0.40;;
53497;SDS011;39382;47.168;16.008;2023-03-15T15:33:14;0.80;;;0.80;;
53497;SDS011;39382;47.168;16.008;2023-03-15T15:35:39;0.55;;;0.52;;
53497;SDS011;39382;47.168;16.008;2023-03-15T15:38:10;0.60;;;0.50;;
53497;SDS011;39382;47.168;16.008;2023-03-15T15:40:36;0.55;;;0.40;;
53497;SDS011;39382;47.168;16.008;2023-03-15T15:43:02;1.17;;;0.60;;
53497;SDS011;39382;47.168;16.008;2023-03-15T15:45:28;0.75;;;0.50;;
53497;SDS011;39382;47.168;16.008;2023-03-15T15:47:54;0.85;;;0.50;;
53497;SDS011;39382;47.168;16.008;2023-03-15T15:50:20;0.45;;;0.40;;
53497;SDS011;39382;47.168;16.008;2023-03-15T15:52:49;2.40;;;0.57;;
53497;SDS011;39382;47.168;16.008;2023-03-15T15:55:20;0.80;;;0.57;;
53497;SDS011;39382;47.168;16.008;2023-03-15T15:57:49;1.80;;;0.30;;
53497;SDS011;39382;47.168;16.008;2023-03-15T16:00:20;2.72;;;0.30;;
53497;SDS011;39382;47.168;16.008;2023-03-15T16:02:50;0.43;;;0.30;;
53497;SDS011;39382;47.168;16.008;2023-03-15T16:05:21;0.20;;;0.20;;
53497;SDS011;39382;47.168;16.008;2023-03-15T16:07:49;2.28;;;0.50;;